Time;durP1;ratioP1;P1;durP2;ratioP2;P2;SDS_P1;SDS_P2;PMS_P1;PMS_P2;Temp;Humidity;BMP_temperature;BMP_pressure;BME280_temperature;BME280_humidity;BME280_pressure;Samples;Min_cycle;Max_cycle;Signal;HPM_P1;HPM_P2
2023/04/07 00:00:53;;;;;;;28.97;20.97;;;7.30;99.90;;;;;;4772880;30;20043;-81
2023/04/07 00:03:19;;;;;;;32.83;21.40;;;7.30;99.90;;;;;;4772126;30;20148;-81
2023/04/07 00:05:45;;;;;;;34.67;23.63;;;7.30;99.90;;;;;;4772193;30;20066;-81
2023/04/07 00:08:11;;;;;;;34.30;23.17;;;7.30;99.90;;;;;;4772138;30;20051;-82
2023/04/07 00:10:36;;;;;;;35.87;23.07;;;7.30;99.90;;;;;;4787941;29;20508;-81
2023/04/07 00:13:02;;;;;;;36.07;22.87;;;7.30;99.90;;;;;;4791592;30;20047;-81
2023/04/07 00:15:28;;;;;;;32.47;22.50;;;7.30;99.90;;;;;;4792162;30;20058;-81
2023/04/07 00:17:54;;;;;;;32.70;22.97;;;7.30;99.90;;;;;;4791915;30;20504;-82
2023/04/07 00:20:19;;;;;;;35.27;23.87;;;7.30;99.90;;;;;;4791835;30;20074;-82
2023/04/07 00:22:45;;;;;;;34.43;22.33;;;7.30;99.90;;;;;;4791294;30;20059;-82
2023/04/07 00:25:11;;;;;;;36.33;23.03;;;7.30;99.90;;;;;;4791346;30;20573;-82
2023/04/07 00:27:37;;;;;;;40.40;24.47;;;7.30;99.90;;;;;;4791773;30;20401;-83
2023/04/07 00:30:03;;;;;;;39.38;24.88;;;7.40;99.90;;;;;;4791681;29;20476;-83
2023/04/07 00:32:29;;;;;;;38.25;23.67;;;7.30;99.90;;;;;;4775831;30;20052;-84
2023/04/07 00:34:55;;;;;;;35.33;22.73;;;7.40;99.90;;;;;;4775633;30;20059;-85
2023/04/07 00:37:20;;;;;;;36.33;22.83;;;7.30;99.90;;;;;;4775315;30;20115;-84
2023/04/07 00:39:46;;;;;;;37.53;24.27;;;7.40;99.90;;;;;;4791727;29;20138;-83
2023/04/07 00:42:12;;;;;;;36.53;23.13;;;7.30;99.90;;;;;;4791321;30;20208;-83
2023/04/07 00:44:38;;;;;;;42.50;24.47;;;7.40;99.90;;;;;;4791084;30;20055;-83
2023/04/07 00:47:03;;;;;;;34.83;23.70;;;7.40;99.90;;;;;;4776110;30;20052;-83
2023/04/07 00:49:30;;;;;;;32.47;23.23;;;7.40;99.90;;;;;;4775365;30;20054;-83
2023/04/07 00:51:57;;;;;;;34.25;22.88;;;7.40;99.90;;;;;;4791313;30;20121;-83
2023/04/07 00:54:23;;;;;;;42.83;23.52;;;7.30;99.90;;;;;;4791552;29;20067;-83
2023/04/07 00:56:49;;;;;;;34.65;22.33;;;7.30;99.90;;;;;;4790808;29;20066;-83
2023/04/07 00:59:16;;;;;;;40.38;24.42;;;7.30;99.90;;;;;;4790881;30;20062;-83
2023/04/07 01:02:06;;;;;;;36.42;23.58;;;7.40;99.90;;;;;;4774386;30;20569;-83
2023/04/07 01:04:43;;;;;;;39.20;24.08;;;7.30;99.90;;;;;;4791357;30;20058;-83
2023/04/07 01:07:17;;;;;;;41.38;25.52;;;7.40;99.90;;;;;;4775267;30;20055;-83
2023/04/07 01:09:59;;;;;;;34.53;23.95;;;7.40;99.90;;;;;;4791303;30;20055;-83
2023/04/07 01:12:41;;;;;;;37.00;24.23;;;7.40;99.90;;;;;;4774675;30;20056;-84
2023/04/07 01:15:10;;;;;;;38.05;24.15;;;7.40;99.90;;;;;;4790780;30;20059;-84
2023/04/07 01:17:42;;;;;;;38.08;24.88;;;7.40;99.90;;;;;;4775339;30;20435;-83
2023/04/07 01:20:12;;;;;;;38.65;24.80;;;7.40;99.90;;;;;;4790510;30;20130;-83
2023/04/07 01:22:54;;;;;;;37.10;24.00;;;7.40;99.90;;;;;;4791102;29;20094;-83
2023/04/07 01:25:58;;;;;;;45.50;26.13;;;7.40;99.90;;;;;;4774573;30;20143;-83
2023/04/07 01:28:42;;;;;;;41.92;24.98;;;7.40;99.90;;;;;;4775245;30;20133;-82
2023/04/07 01:31:11;;;;;;;44.88;25.02;;;7.40;99.90;;;;;;4790309;30;20063;-83
2023/04/07 01:33:38;;;;;;;43.60;25.60;;;7.40;99.90;;;;;;4790255;30;20117;-82
2023/04/07 01:36:06;;;;;;;41.90;25.98;;;7.40;99.90;;;;;;4790854;30;20140;-83
2023/04/07 01:38:33;;;;;;;41.60;25.02;;;7.40;99.90;;;;;;4790186;30;20146;-81
2023/04/07 01:41:00;;;;;;;46.85;26.10;;;7.40;99.90;;;;;;4790055;29;20047;-83
2023/04/07 01:43:27;;;;;;;38.60;24.90;;;7.40;99.90;;;;;;4790229;30;20397;-83
2023/04/07 01:45:55;;;;;;;41.45;25.45;;;7.40;99.90;;;;;;4790058;30;20055;-84
2023/04/07 01:48:21;;;;;;;40.28;25.27;;;7.40;99.90;;;;;;4789869;30;20539;-83
2023/04/07 01:50:48;;;;;;;48.83;25.35;;;7.40;99.90;;;;;;4790100;30;20085;-83
2023/04/07 01:53:15;;;;;;;36.42;24.25;;;7.40;99.90;;;;;;4789763;29;20516;-84
2023/04/07 01:55:42;;;;;;;45.00;25.20;;;7.40;99.90;;;;;;4790002;30;20063;-83
2023/04/07 01:58:08;;;;;;;40.78;25.10;;;7.40;99.90;;;;;;4789730;30;20520;-83
2023/04/07 02:00:34;;;;;;;57.83;26.87;;;7.40;99.90;;;;;;4789556;30;20055;-84
2023/04/07 02:03:30;;;;;;;45.23;26.63;;;7.40;99.90;;;;;;4789952;30;20047;-84
2023/04/07 02:06:02;;;;;;;51.45;26.80;;;7.40;99.90;;;;;;4788888;29;20489;-84
2023/04/07 02:08:29;;;;;;;43.58;26.30;;;7.50;99.90;;;;;;4790388;30;20380;-84
2023/04/07 02:10:57;;;;;;;39.63;24.98;;;7.40;99.90;;;;;;4790138;30;20051;-84
2023/04/07 02:13:23;;;;;;;43.00;25.45;;;7.40;99.90;;;;;;4789808;30;20055;-83
2023/04/07 02:15:50;;;;;;;39.57;25.47;;;7.40;99.90;;;;;;4789591;30;20062;-83
2023/04/07 02:18:18;;;;;;;39.30;24.88;;;7.40;99.90;;;;;;4789621;30;20051;-82
2023/04/07 02:20:46;;;;;;;44.17;26.08;;;7.40;99.90;;;;;;4789484;29;20059;-82
2023/04/07 02:23:12;;;;;;;54.22;27.42;;;7.50;99.90;;;;;;4773746;30;20542;-83
2023/04/07 02:25:38;;;;;;;54.20;27.50;;;7.50;99.90;;;;;;4789533;30;20059;-82
2023/04/07 02:28:05;;;;;;;45.63;26.73;;;7.50;99.90;;;;;;4789573;30;20104;-83
2023/04/07 02:30:31;;;;;;;44.03;26.00;;;7.50;99.90;;;;;;4789959;30;20057;-83
2023/04/07 02:32:57;;;;;;;47.08;26.98;;;7.50;99.90;;;;;;4789657;29;20102;-83
2023/04/07 02:35:23;;;;;;;49.07;25.90;;;7.50;99.90;;;;;;4788869;30;20462;-83
2023/04/07 02:37:49;;;;;;;43.55;26.30;;;7.50;99.90;;;;;;4789297;29;20091;-83
2023/04/07 02:40:15;;;;;;;43.45;26.13;;;7.50;99.90;;;;;;4773170;30;20055;-83
2023/04/07 02:42:41;;;;;;;42.03;25.50;;;7.50;99.90;;;;;;4789183;30;20051;-83
2023/04/07 02:45:08;;;;;;;51.92;27.48;;;7.50;99.90;;;;;;4773060;30;20654;-83
2023/04/07 02:47:35;;;;;;;45.72;26.05;;;7.50;99.90;;;;;;4788897;30;20550;-83
2023/04/07 02:50:01;;;;;;;39.33;25.27;;;7.50;99.90;;;;;;4789112;29;20508;-85
2023/04/07 02:52:27;;;;;;;46.00;26.48;;;7.50;99.90;;;;;;4789769;30;20108;-85
2023/04/07 02:54:54;;;;;;;40.85;24.58;;;7.50;99.90;;;;;;4772816;30;20093;-85
2023/04/07 02:57:20;;;;;;;44.07;26.43;;;7.50;99.90;;;;;;4773403;30;20063;-85
2023/04/07 02:59:46;;;;;;;40.67;25.17;;;7.50;99.90;;;;;;4788840;29;20141;-84
2023/04/07 03:02:11;;;;;;;37.97;24.70;;;7.50;99.90;;;;;;4772910;30;20129;-84
2023/04/07 03:04:37;;;;;;;41.13;26.70;;;7.60;99.90;;;;;;4758794;30;20439;-83
2023/04/07 03:07:03;;;;;;;44.87;26.60;;;7.50;99.90;;;;;;4788862;30;20051;-84
2023/04/07 03:09:29;;;;;;;46.93;26.77;;;7.50;99.90;;;;;;4788984;30;20090;-84
2023/04/07 03:11:54;;;;;;;45.47;26.30;;;7.50;99.90;;;;;;4789558;30;20039;-84
2023/04/07 03:14:20;;;;;;;42.00;26.37;;;7.50;99.90;;;;;;4788828;30;20047;-83
2023/04/07 03:16:46;;;;;;;47.10;27.43;;;7.50;99.90;;;;;;4789272;30;20112;-83
2023/04/07 03:19:12;;;;;;;50.63;28.03;;;7.50;99.90;;;;;;4772982;30;20105;-84
2023/04/07 03:21:38;;;;;;;45.97;27.10;;;7.50;99.90;;;;;;4772692;30;20047;-84
2023/04/07 03:24:07;;;;;;;46.60;27.73;;;7.60;99.90;;;;;;4788814;30;20055;-84
2023/04/07 03:26:33;;;;;;;53.05;28.10;;;7.50;99.90;;;;;;4789241;30;20146;-84
2023/04/07 03:28:59;;;;;;;47.03;26.50;;;7.50;99.90;;;;;;4788661;29;20144;-84
2023/04/07 03:31:25;;;;;;;47.03;26.57;;;7.50;99.90;;;;;;4788768;30;20489;-84
2023/04/07 03:33:50;;;;;;;52.03;27.63;;;7.50;99.90;;;;;;4788550;30;20509;-83
2023/04/07 03:36:19;;;;;;;52.40;28.20;;;7.60;99.90;;;;;;4788857;29;20110;-85
2023/04/07 03:38:46;;;;;;;44.63;27.35;;;7.60;99.90;;;;;;4788661;30;20071;-82
2023/04/07 03:41:12;;;;;;;49.97;27.40;;;7.60;99.90;;;;;;4788575;29;20089;-84
2023/04/07 03:43:38;;;;;;;44.73;26.80;;;7.60;99.90;;;;;;4788493;30;20113;-84
2023/04/07 03:46:04;;;;;;;50.13;28.07;;;7.50;99.90;;;;;;4760260;30;20051;-85
2023/04/07 03:48:30;;;;;;;53.03;28.53;;;7.50;99.90;;;;;;4792203;29;20063;-84
2023/04/07 03:50:56;;;;;;;45.87;28.20;;;7.50;99.90;;;;;;4792008;30;20803;-83
2023/04/07 03:53:22;;;;;;;49.03;28.13;;;7.50;99.90;;;;;;4791967;29;20051;-84
2023/04/07 03:55:48;;;;;;;49.77;28.03;;;7.60;99.90;;;;;;4775712;30;20063;-82
2023/04/07 03:58:13;;;;;;;53.53;28.23;;;7.50;99.90;;;;;;4792657;30;20055;-84
2023/04/07 04:00:39;;;;;;;44.87;27.23;;;7.50;99.90;;;;;;4776185;30;20499;-83
2023/04/07 04:03:05;;;;;;;38.63;25.37;;;7.50;99.90;;;;;;4791834;30;20222;-83
2023/04/07 04:05:31;;;;;;;47.73;27.93;;;7.50;99.90;;;;;;4791814;29;20051;-83
2023/04/07 04:07:56;;;;;;;42.43;26.37;;;7.50;99.90;;;;;;4776710;30;20089;-84
2023/04/07 04:10:22;;;;;;;44.83;27.63;;;7.50;99.90;;;;;;4760628;30;20097;-84
2023/04/07 04:12:48;;;;;;;44.10;27.43;;;7.50;99.90;;;;;;4792482;30;20059;-84
2023/04/07 04:15:14;;;;;;;45.00;27.80;;;7.50;99.90;;;;;;4791909;30;20071;-84
2023/04/07 04:17:40;;;;;;;50.35;27.95;;;7.50;99.90;;;;;;4791716;29;20055;-84
2023/04/07 04:20:07;;;;;;;54.80;28.77;;;7.50;99.90;;;;;;4791669;30;20400;-84
2023/04/07 04:22:33;;;;;;;45.03;26.77;;;7.50;99.90;;;;;;4775492;30;20504;-83
2023/04/07 04:24:59;;;;;;;46.90;27.53;;;7.50;99.90;;;;;;4760865;30;20093;-84
2023/04/07 04:27:25;;;;;;;48.97;28.23;;;7.50;99.90;;;;;;4760735;30;20162;-84
2023/04/07 04:29:52;;;;;;;49.70;28.92;;;7.50;99.90;;;;;;4791406;30;20469;-82
2023/04/07 04:32:18;;;;;;;46.72;26.98;;;7.50;99.90;;;;;;4792180;30;20055;-84
2023/04/07 04:34:44;;;;;;;45.33;28.00;;;7.50;99.90;;;;;;4791337;30;20137;-84
2023/04/07 04:37:10;;;;;;;51.17;28.67;;;7.50;99.90;;;;;;4791401;30;20067;-84
2023/04/07 04:39:36;;;;;;;52.85;29.27;;;7.50;99.90;;;;;;4791384;29;20115;-84
2023/04/07 04:42:02;;;;;;;55.23;28.43;;;7.50;99.90;;;;;;4791144;29;20055;-83
2023/04/07 04:44:29;;;;;;;49.05;27.42;;;7.50;99.90;;;;;;4791174;30;20051;-83
2023/04/07 04:46:55;;;;;;;58.13;29.25;;;7.50;99.90;;;;;;4791011;30;20062;-83
2023/04/07 04:49:20;;;;;;;48.43;27.80;;;7.50;99.90;;;;;;4775566;30;20060;-82
2023/04/07 04:51:46;;;;;;;54.30;29.10;;;7.50;99.90;;;;;;4790772;30;20055;-83
2023/04/07 04:54:12;;;;;;;48.17;27.00;;;7.50;99.90;;;;;;4760747;29;20082;-82
2023/04/07 04:56:38;;;;;;;52.50;27.67;;;7.50;99.90;;;;;;4774284;30;20067;-83
2023/04/07 04:59:04;;;;;;;56.00;28.20;;;7.50;99.90;;;;;;4775196;30;20087;-84
2023/04/07 05:01:29;;;;;;;49.15;27.50;;;7.50;99.90;;;;;;4790796;29;20051;-83
2023/04/07 05:03:55;;;;;;;54.00;28.27;;;7.50;99.90;;;;;;4790886;30;20136;-83
2023/04/07 05:06:21;;;;;;;48.87;27.83;;;7.50;99.90;;;;;;4790980;29;20455;-84
2023/04/07 05:08:47;;;;;;;51.28;28.40;;;7.50;99.90;;;;;;4774599;30;20489;-83
2023/04/07 05:11:13;;;;;;;55.07;28.23;;;7.50;99.90;;;;;;4790758;30;20062;-83
2023/04/07 05:13:39;;;;;;;49.60;27.60;;;7.60;99.90;;;;;;4790638;30;20058;-83
2023/04/07 05:16:05;;;;;;;46.58;25.85;;;7.50;99.90;;;;;;4790708;29;20062;-82
2023/04/07 05:18:31;;;;;;;49.17;26.13;;;7.60;99.90;;;;;;4790223;30;20512;-83
2023/04/07 05:20:57;;;;;;;43.77;24.37;;;7.50;99.90;;;;;;4774552;30;20112;-83
2023/04/07 05:23:22;;;;;;;39.63;23.77;;;7.50;99.90;;;;;;4790898;30;20370;-83
2023/04/07 05:25:49;;;;;;;34.27;21.57;;;7.60;99.90;;;;;;4791002;29;20441;-83
2023/04/07 05:28:15;;;;;;;41.13;21.83;;;7.50;99.90;;;;;;4791435;30;20058;-83
2023/04/07 05:30:40;;;;;;;29.00;19.40;;;7.50;99.90;;;;;;4775244;30;20385;-83
2023/04/07 05:33:06;;;;;;;29.67;20.13;;;7.50;99.90;;;;;;4790380;30;20051;-83
2023/04/07 05:35:32;;;;;;;30.73;20.37;;;7.50;99.90;;;;;;4790041;30;20058;-84
2023/04/07 05:37:58;;;;;;;30.80;20.93;;;7.50;99.90;;;;;;4790234;29;20051;-84
2023/04/07 05:40:24;;;;;;;30.30;19.60;;;7.50;99.90;;;;;;4790271;30;20232;-84
2023/04/07 05:42:50;;;;;;;33.88;20.98;;;7.50;99.90;;;;;;4774122;30;20055;-83
2023/04/07 05:45:15;;;;;;;37.87;21.40;;;7.50;99.90;;;;;;4759449;30;20059;-83
2023/04/07 05:47:41;;;;;;;31.03;20.33;;;7.50;99.90;;;;;;4774206;30;20112;-83
2023/04/07 05:50:07;;;;;;;34.97;20.43;;;7.50;99.90;;;;;;4790086;29;20489;-83
2023/04/07 05:52:33;;;;;;;31.30;19.55;;;7.40;99.90;;;;;;4774175;30;20190;-82
2023/04/07 05:54:59;;;;;;;33.60;20.33;;;7.50;99.90;;;;;;4789916;29;20159;-83
2023/04/07 05:57:26;;;;;;;29.70;19.83;;;7.50;99.90;;;;;;4790673;30;20536;-84
2023/04/07 05:59:52;;;;;;;28.05;19.48;;;7.50;99.90;;;;;;4790164;30;20551;-84
2023/04/07 06:02:18;;;;;;;28.25;19.17;;;7.50;99.90;;;;;;4790614;30;20062;-83
2023/04/07 06:04:45;;;;;;;29.97;19.43;;;7.50;99.90;;;;;;4789875;30;20055;-83
2023/04/07 06:07:10;;;;;;;28.95;19.23;;;7.50;99.90;;;;;;4789849;30;20094;-83
2023/04/07 06:09:36;;;;;;;29.17;18.50;;;7.40;99.90;;;;;;4773539;30;20099;-84
2023/04/07 06:12:04;;;;;;;25.73;18.03;;;7.40;99.90;;;;;;4789735;30;20063;-82
2023/04/07 06:14:29;;;;;;;23.83;17.63;;;7.50;99.90;;;;;;4790205;30;20120;-83
2023/04/07 06:16:55;;;;;;;24.70;16.90;;;7.40;99.90;;;;;;4789572;30;20493;-83
2023/04/07 06:19:21;;;;;;;24.57;17.63;;;7.50;99.90;;;;;;4774220;30;20193;-83
2023/04/07 06:21:47;;;;;;;21.73;15.57;;;7.40;99.90;;;;;;4789429;29;20055;-82
2023/04/07 06:24:12;;;;;;;25.17;16.87;;;7.50;99.90;;;;;;4789972;29;20055;-82
2023/04/07 06:26:39;;;;;;;23.93;16.43;;;7.50;99.90;;;;;;4773044;30;20055;-82
2023/04/07 06:29:06;;;;;;;22.60;17.10;;;7.50;99.90;;;;;;4789429;30;20047;-82
2023/04/07 06:31:31;;;;;;;23.48;15.52;;;7.50;99.90;;;;;;4789308;30;20378;-82
2023/04/07 06:33:57;;;;;;;21.10;15.50;;;7.50;99.90;;;;;;4789323;30;20129;-83
2023/04/07 06:36:23;;;;;;;19.77;14.87;;;7.50;99.90;;;;;;4773183;30;20064;-82
2023/04/07 06:38:49;;;;;;;22.83;15.33;;;7.50;99.90;;;;;;4790042;30;20130;-83
2023/04/07 06:41:16;;;;;;;24.27;15.90;;;7.50;99.90;;;;;;4789048;30;20047;-82
2023/04/07 06:43:50;;;;;;;20.50;14.02;;;7.50;99.90;;;;;;4789241;30;20493;-82
2023/04/07 06:46:16;;;;;;;21.48;15.32;;;7.50;99.90;;;;;;4788967;30;20061;-83
2023/04/07 06:48:41;;;;;;;21.05;15.00;;;7.50;99.90;;;;;;4773242;30;20138;-83
2023/04/07 06:51:07;;;;;;;20.73;14.97;;;7.50;99.90;;;;;;4772936;30;20588;-82
2023/04/07 06:53:33;;;;;;;19.50;14.47;;;7.60;99.90;;;;;;4789018;30;20121;-82
2023/04/07 06:56:07;;;;;;;19.10;13.80;;;7.60;99.90;;;;;;4773417;30;20589;-81
2023/04/07 06:58:34;;;;;;;20.38;15.15;;;7.60;99.90;;;;;;4789635;30;20055;-81
2023/04/07 07:01:00;;;;;;;21.50;15.00;;;7.60;99.90;;;;;;4788873;30;20054;-82
2023/04/07 07:03:28;;;;;;;18.02;13.93;;;7.60;99.90;;;;;;4788708;29;20493;-78
2023/04/07 07:05:57;;;;;;;19.20;14.48;;;7.60;99.90;;;;;;4788692;30;20055;-80
2023/04/07 07:08:24;;;;;;;18.95;14.27;;;7.60;99.90;;;;;;4788809;30;20137;-85
2023/04/07 07:10:51;;;;;;;21.48;14.77;;;7.60;99.90;;;;;;4789379;30;20385;-85
2023/04/07 07:13:18;;;;;;;18.58;14.00;;;7.60;99.90;;;;;;4788721;30;20054;-85
2023/04/07 07:15:44;;;;;;;20.38;14.65;;;7.70;99.90;;;;;;4789221;29;20184;-85
2023/04/07 07:18:10;;;;;;;21.77;14.90;;;7.60;99.90;;;;;;4772756;30;20462;-85
2023/04/07 07:20:36;;;;;;;19.65;15.07;;;7.70;99.90;;;;;;4788614;30;20376;-84
2023/04/07 07:23:02;;;;;;;19.90;14.83;;;7.70;99.90;;;;;;4788677;30;20051;-85
2023/04/07 07:25:28;;;;;;;19.13;15.70;;;7.70;99.90;;;;;;4772838;30;20059;-86
2023/04/07 07:27:54;;;;;;;19.03;14.40;;;7.70;99.90;;;;;;4788648;30;20057;-86
2023/04/07 07:30:23;;;;;;;18.87;14.00;;;7.80;99.90;;;;;;4773173;30;20629;-86
2023/04/07 07:32:50;;;;;;;18.73;14.50;;;7.70;99.90;;;;;;4758303;30;20076;-85
2023/04/07 07:35:16;;;;;;;19.88;14.82;;;7.80;99.90;;;;;;4789105;29;20094;-85
2023/04/07 07:37:43;;;;;;;17.93;13.90;;;7.80;99.90;;;;;;4788637;29;20474;-86
2023/04/07 07:40:09;;;;;;;20.63;15.13;;;7.70;99.90;;;;;;4788403;30;20134;-85
2023/04/07 07:42:36;;;;;;;20.88;15.30;;;7.80;99.90;;;;;;4788555;30;20063;-85
2023/04/07 07:45:02;;;;;;;21.93;16.37;;;7.70;99.90;;;;;;4788561;29;20051;-85
2023/04/07 07:47:28;;;;;;;21.13;15.82;;;7.70;99.90;;;;;;4789214;30;20611;-85
2023/04/07 07:49:56;;;;;;;21.60;15.80;;;7.70;99.90;;;;;;4788299;30;20055;-84
2023/04/07 07:52:22;;;;;;;23.33;16.85;;;7.80;99.90;;;;;;4788297;30;20565;-85
2023/04/07 07:54:49;;;;;;;21.98;16.58;;;7.80;99.90;;;;;;4788285;29;20556;-85
2023/04/07 07:57:15;;;;;;;23.35;16.65;;;7.90;99.90;;;;;;4772455;30;20059;-85
2023/04/07 07:59:41;;;;;;;22.37;16.60;;;7.90;99.90;;;;;;4788417;30;20455;-84
2023/04/07 08:02:07;;;;;;;24.30;18.10;;;7.90;99.90;;;;;;4788490;30;20052;-83
2023/04/07 08:04:35;;;;;;;21.37;16.93;;;7.90;99.90;;;;;;4788128;30;20056;-83
2023/04/07 08:07:01;;;;;;;21.85;17.58;;;8.00;99.90;;;;;;4773084;30;20293;-84
2023/04/07 08:09:27;;;;;;;25.80;18.95;;;8.10;99.90;;;;;;4772166;30;20051;-85
2023/04/07 08:11:53;;;;;;;22.73;17.83;;;8.10;99.90;;;;;;4788139;30;20064;-86
2023/04/07 08:14:19;;;;;;;27.17;19.27;;;8.20;99.90;;;;;;4788168;30;20523;-83
2023/04/07 08:16:45;;;;;;;25.10;18.10;;;8.30;99.90;;;;;;4773048;30;20111;-83
2023/04/07 08:19:12;;;;;;;26.17;19.43;;;8.30;99.90;;;;;;4788232;30;20152;-84
2023/04/07 08:21:38;;;;;;;24.00;18.00;;;8.30;99.90;;;;;;4788038;29;20315;-82
2023/04/07 08:24:04;;;;;;;23.13;17.80;;;8.40;99.90;;;;;;4788645;29;20289;-83
2023/04/07 08:26:31;;;;;;;23.50;18.40;;;8.40;99.90;;;;;;4772157;30;20058;-83
2023/04/07 08:28:57;;;;;;;26.73;19.80;;;8.40;99.90;;;;;;4772300;30;20125;-85
2023/04/07 08:31:23;;;;;;;25.37;19.93;;;8.40;99.90;;;;;;4772390;30;20437;-84
2023/04/07 08:33:53;;;;;;;23.23;18.85;;;8.40;99.90;;;;;;4791342;30;20766;-85
2023/04/07 08:36:22;;;;;;;25.77;19.43;;;8.40;99.90;;;;;;4776220;30;20091;-84
2023/04/07 08:38:48;;;;;;;24.90;19.77;;;8.40;99.90;;;;;;4791237;29;20297;-86
2023/04/07 08:41:20;;;;;;;23.50;19.30;;;8.40;99.90;;;;;;4775594;30;20316;-85
2023/04/07 08:43:48;;;;;;;23.07;18.47;;;8.50;99.90;;;;;;4775226;30;20063;-85
2023/04/07 08:46:14;;;;;;;25.50;20.20;;;8.50;99.90;;;;;;4791175;30;20612;-85
2023/04/07 08:48:43;;;;;;;23.33;19.27;;;8.50;99.90;;;;;;4760581;30;20303;-86
2023/04/07 08:51:12;;;;;;;25.67;18.83;;;8.50;99.90;;;;;;4774919;30;20323;-85
2023/04/07 08:53:50;;;;;;;22.80;17.70;;;8.50;99.90;;;;;;4775164;30;20358;-84
2023/04/07 08:56:17;;;;;;;25.97;19.50;;;8.60;99.90;;;;;;4790509;30;20369;-87
2023/04/07 08:58:45;;;;;;;21.60;18.27;;;8.60;99.90;;;;;;4775078;30;20301;-87
2023/04/07 09:01:12;;;;;;;22.73;17.43;;;8.60;99.90;;;;;;4775006;30;20647;-86
2023/04/07 09:03:38;;;;;;;21.03;16.97;;;8.70;99.90;;;;;;4760000;30;20301;-80
2023/04/07 09:06:04;;;;;;;21.40;16.90;;;8.70;99.90;;;;;;4790979;30;20292;-83
2023/04/07 09:08:30;;;;;;;19.97;16.30;;;8.80;99.90;;;;;;4791462;29;20761;-83
2023/04/07 09:10:56;;;;;;;18.53;15.50;;;8.80;99.90;;;;;;4775355;30;20063;-84
2023/04/07 09:13:24;;;;;;;20.40;16.17;;;8.80;99.90;;;;;;4759480;30;20055;-80
2023/04/07 09:15:50;;;;;;;18.70;15.43;;;8.90;99.90;;;;;;4790416;29;20293;-76
2023/04/07 09:18:16;;;;;;;20.13;16.10;;;8.90;99.90;;;;;;4790373;30;20293;-74
2023/04/07 09:20:56;;;;;;;18.87;15.77;;;8.90;99.90;;;;;;4790193;29;20051;-74
2023/04/07 09:23:29;;;;;;;18.97;14.23;;;9.00;99.90;;;;;;4790738;30;20314;-78
2023/04/07 09:25:58;;;;;;;16.10;13.37;;;9.00;99.90;;;;;;4790249;30;20654;-74
2023/04/07 09:28:25;;;;;;;15.90;13.07;;;9.10;99.90;;;;;;4790171;30;20330;-75
2023/04/07 09:30:54;;;;;;;16.10;13.90;;;9.10;99.90;;;;;;4790190;30;20285;-74
2023/04/07 09:33:27;;;;;;;16.47;12.73;;;9.20;99.90;;;;;;4790082;30;20292;-73
2023/04/07 09:35:53;;;;;;;14.73;12.07;;;9.20;99.90;;;;;;4774102;30;20297;-77
2023/04/07 09:38:19;;;;;;;16.63;13.57;;;9.30;99.90;;;;;;4790795;30;20312;-78
2023/04/07 09:40:44;;;;;;;14.93;12.37;;;9.30;99.90;;;;;;4758889;30;20814;-76
2023/04/07 09:43:19;;;;;;;15.30;12.27;;;9.40;99.90;;;;;;4789664;29;20055;-81
2023/04/07 09:45:45;;;;;;;14.80;12.07;;;9.50;99.90;;;;;;4790505;30;20059;-76
2023/04/07 09:48:19;;;;;;;13.80;11.43;;;9.50;99.90;;;;;;4759286;30;20055;-76
2023/04/07 09:50:48;;;;;;;14.07;11.97;;;9.50;99.90;;;;;;4774022;30;20371;-77
2023/04/07 09:53:18;;;;;;;15.50;12.60;;;9.50;99.90;;;;;;4790339;30;20672;-77
2023/04/07 09:55:44;;;;;;;13.50;11.93;;;9.50;99.90;;;;;;4789357;29;20684;-77
2023/04/07 09:58:13;;;;;;;13.63;11.70;;;9.60;99.90;;;;;;4789650;29;20354;-77
2023/04/07 10:00:40;;;;;;;13.37;11.17;;;9.70;99.90;;;;;;4789798;30;20645;-74
2023/04/07 10:03:07;;;;;;;11.97;9.50;;;9.70;99.90;;;;;;4790064;30;20292;-76
2023/04/07 10:05:35;;;;;;;11.77;9.60;;;9.60;99.90;;;;;;4774010;30;20301;-78
2023/04/07 10:08:01;;;;;;;13.13;10.80;;;9.60;99.90;;;;;;4774469;30;20673;-80
2023/04/07 10:10:29;;;;;;;12.40;9.93;;;9.60;99.90;;;;;;4759701;30;20317;-83
2023/04/07 10:12:56;;;;;;;12.10;9.67;;;9.60;99.90;;;;;;4773639;30;20308;-79
2023/04/07 10:15:22;;;;;;;12.30;10.30;;;9.60;99.90;;;;;;4774465;30;20308;-78
2023/04/07 10:17:48;;;;;;;10.53;8.93;;;9.60;99.90;;;;;;4759434;30;20305;-79
2023/04/07 10:20:21;;;;;;;10.60;8.77;;;9.60;99.90;;;;;;4790027;30;20354;-79
2023/04/07 10:22:50;;;;;;;11.37;9.80;;;9.60;99.90;;;;;;4759236;30;20343;-78
2023/04/07 10:25:19;;;;;;;12.50;10.20;;;9.60;99.90;;;;;;4773242;30;20307;-81
2023/04/07 10:27:53;;;;;;;12.60;9.93;;;9.60;99.90;;;;;;4789392;30;20297;-80
2023/04/07 10:30:31;;;;;;;11.37;9.47;;;9.70;99.90;;;;;;4773626;30;20336;-81
2023/04/07 10:32:57;;;;;;;13.13;10.07;;;9.70;99.90;;;;;;4789101;30;20304;-80
2023/04/07 10:35:24;;;;;;;11.83;10.00;;;9.70;99.90;;;;;;4789037;29;20299;-81
2023/04/07 10:38:12;;;;;;;11.23;9.63;;;9.70;99.90;;;;;;4788971;30;20289;-82
2023/04/07 10:40:39;;;;;;;12.07;8.87;;;9.80;99.90;;;;;;4773033;30;20859;-82
2023/04/07 10:43:10;;;;;;;12.47;10.00;;;9.80;99.90;;;;;;4788939;30;20380;-81
2023/04/07 10:45:45;;;;;;;13.23;10.60;;;9.80;99.90;;;;;;4758751;30;20343;-82
2023/04/07 10:48:12;;;;;;;12.30;9.45;;;9.80;99.90;;;;;;4773044;30;20305;-84
2023/04/07 10:50:38;;;;;;;10.67;9.17;;;9.90;99.90;;;;;;4789485;30;20408;-80
2023/04/07 10:53:12;;;;;;;11.60;9.30;;;10.00;99.90;;;;;;4772949;30;20683;-81
2023/04/07 10:55:45;;;;;;;12.73;9.40;;;10.10;99.90;;;;;;4771821;30;20308;-77
2023/04/07 10:58:20;;;;;;;10.73;8.60;;;10.10;99.90;;;;;;4789531;30;20383;-78
2023/04/07 11:01:04;;;;;;;10.02;7.90;;;10.20;99.90;;;;;;4772669;30;20313;-78
2023/04/07 11:03:32;;;;;;;9.77;8.00;;;10.20;99.90;;;;;;4772800;30;20079;-78
2023/04/07 11:06:09;;;;;;;10.77;8.37;;;10.20;99.90;;;;;;4789428;30;20332;-78
2023/04/07 11:08:46;;;;;;;9.20;7.47;;;10.30;99.90;;;;;;4788559;30;20330;-80
2023/04/07 11:11:19;;;;;;;8.97;7.30;;;10.30;99.90;;;;;;4788572;30;20293;-82
2023/04/07 11:13:49;;;;;;;9.00;7.43;;;10.30;99.90;;;;;;4788523;30;20443;-82
2023/04/07 11:16:17;;;;;;;10.07;7.03;;;10.40;99.90;;;;;;4788517;30;20323;-82
2023/04/07 11:18:43;;;;;;;10.33;6.50;;;10.40;99.90;;;;;;4772335;30;20620;-82
2023/04/07 11:21:09;;;;;;;8.90;6.07;;;10.40;99.90;;;;;;4772262;30;20313;-80
2023/04/07 11:23:39;;;;;;;7.90;6.10;;;10.40;99.90;;;;;;4788423;30;20353;-81
2023/04/07 11:26:04;;;;;;;8.43;6.40;;;10.40;99.90;;;;;;4788390;30;20051;-82
2023/04/07 11:28:31;;;;;;;8.03;6.03;;;10.40;99.90;;;;;;4772249;30;20356;-80
2023/04/07 11:30:57;;;;;;;7.97;5.87;;;10.40;99.90;;;;;;4789161;30;20102;-79
2023/04/07 11:33:29;;;;;;;8.63;6.37;;;10.40;99.90;;;;;;4788365;30;20627;-81
2023/04/07 11:35:58;;;;;;;8.97;6.17;;;10.40;99.90;;;;;;4788828;30;20685;-79
2023/04/07 11:38:36;;;;;;;8.50;5.50;;;10.40;99.90;;;;;;4788288;30;20639;-79
2023/04/07 11:41:14;;;;;;;8.27;6.10;;;10.40;99.90;;;;;;4788280;30;20305;-73
2023/04/07 11:43:43;;;;;;;7.27;5.60;;;10.50;99.90;;;;;;4788159;30;20297;-75
2023/04/07 11:46:11;;;;;;;12.30;6.37;;;10.50;99.90;;;;;;4788164;30;20304;-74
2023/04/07 11:48:39;;;;;;;7.70;5.37;;;10.60;99.90;;;;;;4788124;30;20311;-80
2023/04/07 11:51:06;;;;;;;7.53;5.53;;;10.70;99.90;;;;;;4788588;29;20296;-77
2023/04/07 11:53:34;;;;;;;9.47;6.30;;;10.70;99.90;;;;;;4788791;29;20292;-75
2023/04/07 11:56:03;;;;;;;14.73;5.77;;;10.80;99.90;;;;;;4787711;30;20297;-76
2023/04/07 11:58:29;;;;;;;8.37;5.77;;;10.90;99.90;;;;;;4757466;30;20301;-79
2023/04/07 12:00:57;;;;;;;8.87;5.87;;;10.90;99.90;;;;;;4757293;30;20324;-82
2023/04/07 12:03:23;;;;;;;7.20;5.50;;;10.90;99.90;;;;;;4772534;30;20048;-84
2023/04/07 12:05:49;;;;;;;7.07;4.80;;;10.90;99.90;;;;;;4788805;29;20297;-83
2023/04/07 12:08:18;;;;;;;6.70;4.93;;;10.90;99.90;;;;;;4791859;29;20115;-81
2023/04/07 12:10:44;;;;;;;7.63;5.83;;;10.70;99.90;;;;;;4791497;29;20380;-81
2023/04/07 12:13:12;;;;;;;8.17;6.43;;;10.70;99.90;;;;;;4791452;30;20830;-78
2023/04/07 12:15:38;;;;;;;7.93;6.20;;;10.60;99.90;;;;;;4791461;30;20297;-83
2023/04/07 12:18:04;;;;;;;8.10;5.87;;;10.50;99.90;;;;;;4775322;30;20304;-82
2023/04/07 12:20:30;;;;;;;9.30;6.40;;;10.50;99.90;;;;;;4791304;29;20052;-82
2023/04/07 12:22:58;;;;;;;8.53;6.73;;;10.50;99.90;;;;;;4791272;30;20297;-83
2023/04/07 12:25:25;;;;;;;8.73;6.50;;;10.40;99.90;;;;;;4775379;30;20351;-77
2023/04/07 12:27:50;;;;;;;7.83;5.73;;;10.40;99.90;;;;;;4791176;30;20376;-74
2023/04/07 12:30:16;;;;;;;8.40;6.03;;;10.30;99.90;;;;;;4791215;30;20383;-79
2023/04/07 12:32:42;;;;;;;8.93;6.43;;;10.40;99.90;;;;;;4775449;30;20058;-74
2023/04/07 12:35:07;;;;;;;7.97;5.87;;;10.40;99.90;;;;;;4791840;30;20505;-73
2023/04/07 12:37:33;;;;;;;8.60;5.90;;;10.30;99.90;;;;;;4775108;30;20054;-73
2023/04/07 12:39:59;;;;;;;8.40;5.90;;;10.30;99.90;;;;;;4775072;30;20130;-73